Time;durP1;ratioP1;P1;durP2;ratioP2;P2;SDS_P1;SDS_P2;PMS_P1;PMS_P2;Temp;Humidity;BMP_temperature;BMP_pressure;BME280_temperature;BME280_humidity;BME280_pressure;Samples;Min_cycle;Max_cycle;Signal;HPM_P1;HPM_P2
2021/04/09 00:02:23;;;;;;;16.73;8.80;;;;;;;5.05;46.93;96938.91;5029888;28;20449;-69
2021/04/09 00:04:49;;;;;;;14.57;8.37;;;;;;;5.02;47.52;96930.53;5032985;28;20269;-68
2021/04/09 00:07:15;;;;;;;27.17;10.03;;;;;;;4.95;47.28;96935.41;5032805;28;20557;-68
2021/04/09 00:09:40;;;;;;;17.60;7.30;;;;;;;4.97;47.11;96935.31;5022393;28;20234;-69
2021/04/09 00:12:07;;;;;;;10.60;7.50;;;;;;;4.95;46.59;96937.19;5032569;28;20442;-69
2021/04/09 00:14:33;;;;;;;12.77;7.63;;;;;;;5.00;47.00;96937.63;4982332;28;20690;-68
2021/04/09 00:16:58;;;;;;;10.83;7.40;;;;;;;4.98;46.31;96932.56;5032303;28;20461;-68
2021/04/09 00:19:26;;;;;;;10.87;7.40;;;;;;;5.01;46.49;96929.75;5026310;28;20179;-68
2021/04/09 00:21:52;;;;;;;15.73;7.90;;;;;;;4.96;47.12;96920.66;5024673;28;20263;-68
2021/04/09 00:24:18;;;;;;;14.73;6.73;;;;;;;4.90;47.32;96919.38;5032331;28;20406;-69
2021/04/09 00:26:43;;;;;;;13.37;8.13;;;;;;;4.91;46.80;96914.06;5030894;28;20437;-68
2021/04/09 00:29:09;;;;;;;12.00;6.70;;;;;;;4.91;47.40;96915.84;5023766;28;20200;-69
2021/04/09 00:31:35;;;;;;;11.63;7.27;;;;;;;4.89;46.68;96915.16;5031859;28;20559;-68
2021/04/09 00:34:01;;;;;;;9.33;7.60;;;;;;;4.83;47.64;96916.47;5031036;28;20299;-69
2021/04/09 00:36:26;;;;;;;13.40;7.00;;;;;;;4.80;47.45;96908.91;5032277;28;20522;-68
2021/04/09 00:38:53;;;;;;;15.63;8.10;;;;;;;4.74;47.45;96910.22;5030704;28;20708;-68
2021/04/09 00:41:18;;;;;;;15.50;8.13;;;;;;;4.75;47.37;96909.28;5030907;28;20187;-69
2021/04/09 00:43:44;;;;;;;13.67;7.43;;;;;;;4.66;47.83;96914.38;5017136;28;20435;-68
2021/04/09 00:46:11;;;;;;;10.87;7.27;;;;;;;4.63;47.76;96914.63;5022263;28;20645;-69
2021/04/09 00:48:36;;;;;;;14.30;7.47;;;;;;;4.64;47.72;96911.91;5028839;28;20487;-68
2021/04/09 00:51:04;;;;;;;13.93;7.47;;;;;;;4.66;47.99;96910.03;5029345;28;20414;-71
2021/04/09 00:53:30;;;;;;;10.50;6.93;;;;;;;4.64;47.42;96896.34;5032074;28;20627;-70
2021/04/09 00:55:55;;;;;;;11.57;7.00;;;;;;;4.59;47.72;96904.50;4998714;28;20481;-66
2021/04/09 00:58:21;;;;;;;9.47;6.93;;;;;;;4.60;48.04;96903.53;5030940;28;20180;-68
2021/04/09 01:00:47;;;;;;;11.47;7.27;;;;;;;4.58;48.03;96902.00;5030443;28;20217;-66
2021/04/09 01:03:13;;;;;;;14.10;7.90;;;;;;;4.57;47.79;96892.56;5031075;28;20218;-68
2021/04/09 01:05:40;;;;;;;10.57;7.23;;;;;;;4.59;47.69;96891.53;5014250;28;20423;-67
2021/04/09 01:08:06;;;;;;;13.83;7.63;;;;;;;4.55;48.11;96882.31;5029429;28;20180;-67
2021/04/09 01:10:32;;;;;;;10.73;6.63;;;;;;;4.54;48.65;96882.41;5031317;28;20515;-67
2021/04/09 01:12:58;;;;;;;10.83;6.30;;;;;;;4.56;48.57;96878.78;5031569;28;20471;-67
2021/04/09 01:15:24;;;;;;;11.10;6.83;;;;;;;4.57;48.17;96889.97;5031532;28;20663;-67
2021/04/09 01:18:09;;;;;;;12.53;7.17;;;;;;;4.50;48.70;96888.81;5025599;28;20732;-66
2021/04/09 01:21:02;;;;;;;9.90;6.70;;;;;;;4.55;48.64;96876.28;5010655;28;20533;-67
2021/04/09 01:23:34;;;;;;;11.03;6.77;;;;;;;4.61;48.28;96878.41;5032109;28;20510;-67
2021/04/09 01:26:21;;;;;;;9.70;6.50;;;;;;;4.67;48.48;96875.31;5030835;28;20453;-66
2021/04/09 01:29:17;;;;;;;12.00;6.93;;;;;;;4.68;48.27;96873.56;5023925;28;20520;-67
2021/04/09 01:32:12;;;;;;;9.87;6.60;;;;;;;4.64;48.35;96880.75;5026686;28;20422;-67
2021/04/09 01:35:00;;;;;;;14.87;6.90;;;;;;;4.61;48.32;96876.63;4915740;29;20457;-66
2021/04/09 01:37:29;;;;;;;8.63;6.07;;;;;;;4.64;48.56;96872.97;4921220;29;20428;-67
2021/04/09 01:40:02;;;;;;;12.10;7.00;;;;;;;4.64;47.97;96880.75;4912230;29;20455;-67
2021/04/09 01:42:28;;;;;;;7.77;6.13;;;;;;;4.64;48.53;96880.75;4897842;29;20454;-66
2021/04/09 01:44:54;;;;;;;10.70;6.63;;;;;;;4.61;48.02;96868.03;4912347;29;20526;-66
2021/04/09 01:47:23;;;;;;;9.17;6.70;;;;;;;4.66;47.92;96868.50;4931421;29;20498;-67
2021/04/09 01:49:51;;;;;;;10.07;5.97;;;;;;;4.74;47.81;96866.09;4910355;29;20907;-66
2021/04/09 01:52:17;;;;;;;11.60;6.50;;;;;;;4.71;48.09;96868.13;4915205;29;20489;-66
2021/04/09 01:54:44;;;;;;;11.80;6.43;;;;;;;4.69;48.33;96868.22;4931483;29;20423;-69
2021/04/09 01:57:10;;;;;;;9.30;5.87;;;;;;;4.72;47.46;96864.56;4931145;29;20513;-67
2021/04/09 01:59:38;;;;;;;11.23;6.10;;;;;;;4.69;47.94;96857.03;4915477;29;20427;-67
2021/04/09 02:02:05;;;;;;;10.30;6.00;;;;;;;4.68;47.94;96855.38;4914014;29;20450;-68
2021/04/09 02:04:31;;;;;;;9.80;6.37;;;;;;;4.68;47.88;96861.38;4915232;29;20437;-68
2021/04/09 02:06:57;;;;;;;13.73;5.60;;;;;;;4.66;47.64;96858.09;4915312;29;20437;-67
2021/04/09 02:09:23;;;;;;;7.10;5.00;;;;;;;4.67;47.54;96849.34;4928582;29;20466;-68
2021/04/09 02:11:49;;;;;;;9.80;5.47;;;;;;;4.65;47.63;96853.88;4993746;28;20431;-68
2021/04/09 02:14:15;;;;;;;8.13;5.87;;;;;;;4.65;47.99;96845.22;5019355;28;20422;-66
2021/04/09 02:16:44;;;;;;;6.67;5.47;;;;;;;4.68;48.07;96845.00;5029818;28;20426;-66
2021/04/09 02:19:10;;;;;;;8.03;5.77;;;;;;;4.69;47.77;96844.84;5007111;28;20190;-66
2021/04/09 02:21:37;;;;;;;8.70;5.60;;;;;;;4.67;47.74;96838.97;5030651;28;20520;-67
2021/04/09 02:24:09;;;;;;;12.63;6.57;;;;;;;4.68;47.03;96835.41;5030537;28;20211;-68
2021/04/09 02:26:36;;;;;;;7.83;5.37;;;;;;;4.75;47.10;96831.41;5029766;28;20423;-68
2021/04/09 02:29:04;;;;;;;7.07;4.93;;;;;;;4.80;47.02;96827.56;5031236;28;20489;-65
2021/04/09 02:31:29;;;;;;;8.43;5.63;;;;;;;4.79;47.17;96823.38;5028297;28;20832;-67
2021/04/09 02:33:55;;;;;;;7.33;5.43;;;;;;;4.77;46.63;96826.06;5033057;28;20448;-67
2021/04/09 02:36:28;;;;;;;9.33;5.50;;;;;;;4.76;47.24;96821.81;5026418;28;20226;-68
2021/04/09 02:38:57;;;;;;;11.63;6.03;;;;;;;4.74;46.59;96821.13;5026184;28;20176;-68
2021/04/09 02:41:26;;;;;;;12.77;7.10;;;;;;;4.79;47.00;96810.38;5031655;28;20422;-67
2021/04/09 02:43:52;;;;;;;15.67;7.57;;;;;;;4.72;47.29;96816.06;5018207;28;20493;-67
2021/04/09 02:46:28;;;;;;;16.97;7.30;;;;;;;4.77;46.58;96818.28;5025759;28;20733;-68
2021/04/09 02:48:59;;;;;;;10.00;6.33;;;;;;;4.74;46.93;96814.16;5028704;28;20231;-68
2021/04/09 02:51:25;;;;;;;9.30;6.17;;;;;;;4.72;46.61;96810.06;5012478;28;20426;-68
2021/04/09 02:53:52;;;;;;;8.37;5.60;;;;;;;4.68;46.58;96804.25;5029464;28;20806;-68
2021/04/09 02:56:18;;;;;;;9.10;5.33;;;;;;;4.59;46.93;96795.47;5032485;28;20418;-67
2021/04/09 02:58:45;;;;;;;8.00;5.97;;;;;;;4.52;47.30;96809.06;5032792;28;20415;-66
2021/04/09 03:01:11;;;;;;;7.70;5.87;;;;;;;4.53;46.94;96802.94;5032193;28;20642;-66
2021/04/09 03:03:37;;;;;;;9.70;6.00;;;;;;;4.54;47.25;96796.78;5032430;28;20460;-68
2021/04/09 03:06:04;;;;;;;10.57;6.20;;;;;;;4.49;47.30;96809.31;5032440;28;20192;-67
2021/04/09 03:08:30;;;;;;;11.43;6.53;;;;;;;4.28;48.38;96804.91;5029850;28;20462;-67
2021/04/09 03:10:56;;;;;;;9.83;6.83;;;;;;;4.38;47.78;96803.22;5028986;28;20437;-66
2021/04/09 03:13:21;;;;;;;8.60;5.50;;;;;;;4.40;47.71;96795.31;5032252;28;20466;-67
2021/04/09 03:15:54;;;;;;;6.10;5.10;;;;;;;4.40;47.77;96800.50;5033681;28;20176;-67
2021/04/09 03:18:21;;;;;;;7.70;5.40;;;;;;;4.38;47.50;96795.44;5013713;28;20686;-66
2021/04/09 03:20:47;;;;;;;7.50;5.13;;;;;;;4.35;48.25;96795.69;5026772;28;20929;-67
2021/04/09 03:23:12;;;;;;;11.20;6.60;;;;;;;4.33;48.15;96789.78;5022345;28;20441;-65
2021/04/09 03:25:38;;;;;;;7.90;5.30;;;;;;;4.30;47.86;96795.22;5013731;28;20184;-66
2021/04/09 03:28:05;;;;;;;9.43;6.40;;;;;;;4.28;48.34;96791.94;5021237;28;20760;-67
2021/04/09 03:30:30;;;;;;;10.60;6.30;;;;;;;4.27;48.52;96795.47;5012185;28;20180;-67
2021/04/09 03:32:56;;;;;;;8.97;5.90;;;;;;;4.26;48.26;96799.03;5013389;28;20450;-66
2021/04/09 03:35:22;;;;;;;8.50;5.73;;;;;;;4.26;48.43;96791.25;5013311;28;20239;-66
2021/04/09 03:37:48;;;;;;;8.13;6.40;;;;;;;4.25;48.43;96792.19;5012448;28;20180;-66
2021/04/09 03:40:15;;;;;;;9.77;5.50;;;;;;;4.24;48.54;96791.34;5012879;28;20186;-66
2021/04/09 03:42:40;;;;;;;9.20;5.80;;;;;;;4.24;48.73;96790.53;5018558;28;20858;-67
2021/04/09 03:45:07;;;;;;;10.00;5.53;;;;;;;4.25;48.64;96790.41;5031367;28;20429;-66
2021/04/09 03:47:32;;;;;;;8.80;6.50;;;;;;;4.25;48.90;96793.00;5013114;28;20184;-67
2021/04/09 03:49:58;;;;;;;12.03;8.30;;;;;;;4.25;48.69;96787.00;5012493;28;20481;-65
2021/04/09 03:52:24;;;;;;;12.47;7.50;;;;;;;4.25;49.04;96787.81;5012862;28;20200;-66
2021/04/09 03:54:50;;;;;;;14.57;7.00;;;;;;;4.30;48.80;96783.09;5013255;28;20227;-66
2021/04/09 03:57:15;;;;;;;9.80;6.70;;;;;;;4.33;48.67;96787.19;5011447;28;20720;-67
2021/04/09 03:59:41;;;;;;;9.13;6.33;;;;;;;4.39;48.57;96789.31;5012851;28;20196;-66
2021/04/09 04:02:06;;;;;;;13.53;7.03;;;;;;;4.44;48.63;96781.16;5012632;28;20205;-67
2021/04/09 04:04:32;;;;;;;9.03;6.10;;;;;;;4.47;48.41;96780.91;5012838;28;20180;-66
2021/04/09 04:06:58;;;;;;;11.37;8.00;;;;;;;4.52;48.09;96785.72;5013177;28;20268;-66
2021/04/09 04:09:23;;;;;;;12.77;8.10;;;;;;;4.42;47.91;96794.22;5012341;28;20215;-66
2021/04/09 04:11:49;;;;;;;17.00;7.90;;;;;;;4.54;47.84;96782.03;5020728;28;20242;-66
2021/04/09 04:14:15;;;;;;;10.83;7.47;;;;;;;4.65;47.30;96782.94;5012914;28;20196;-66
2021/04/09 04:16:40;;;;;;;17.70;7.70;;;;;;;4.71;46.88;96779.84;5014168;28;20632;-68
2021/04/09 04:19:06;;;;;;;11.77;7.23;;;;;;;4.90;46.10;96776.56;5017793;28;20183;-66
2021/04/09 04:21:32;;;;;;;11.10;7.50;;;;;;;5.05;46.58;96784.84;5025072;28;20234;-66
2021/04/09 04:23:57;;;;;;;11.27;7.50;;;;;;;5.00;46.45;96780.03;5022522;28;20212;-66
2021/04/09 04:26:23;;;;;;;14.67;8.70;;;;;;;5.12;45.96;96779.97;5013100;28;20185;-66
2021/04/09 04:28:49;;;;;;;15.80;7.70;;;;;;;5.02;45.95;96777.28;5013089;28;20793;-67
2021/04/09 04:31:14;;;;;;;10.90;7.30;;;;;;;5.06;45.84;96784.69;5015454;28;20555;-67
2021/04/09 04:33:40;;;;;;;11.57;7.23;;;;;;;5.05;45.72;96790.84;5019349;28;20623;-68
2021/04/09 04:36:06;;;;;;;12.13;7.40;;;;;;;5.05;46.05;96779.66;5029261;28;20180;-67
2021/04/09 04:38:31;;;;;;;14.97;7.67;;;;;;;5.03;45.97;96784.97;5018262;28;20184;-67
2021/04/09 04:40:58;;;;;;;11.20;7.17;;;;;;;4.98;46.03;96784.53;5009524;28;20327;-67
2021/04/09 04:43:25;;;;;;;12.57;7.90;;;;;;;4.94;46.11;96782.31;5025451;28;20445;-68
2021/04/09 04:45:51;;;;;;;15.60;8.00;;;;;;;4.87;46.56;96782.00;5017106;28;20423;-67
2021/04/09 04:48:17;;;;;;;13.83;7.37;;;;;;;4.88;46.51;96783.66;5012409;28;20510;-68
2021/04/09 04:50:42;;;;;;;13.50;8.17;;;;;;;4.90;46.92;96781.75;5012439;28;20427;-66
2021/04/09 04:53:08;;;;;;;11.57;7.03;;;;;;;4.91;46.36;96778.22;5012018;28;20234;-66
2021/04/09 04:55:34;;;;;;;16.17;7.87;;;;;;;4.92;46.84;96774.63;5011439;28;20183;-66
2021/04/09 04:57:59;;;;;;;11.90;7.17;;;;;;;4.96;46.63;96783.00;5012817;28;20184;-66
2021/04/09 05:00:25;;;;;;;17.03;7.40;;;;;;;4.95;46.69;96774.38;5019358;28;20177;-66
2021/04/09 05:02:52;;;;;;;12.73;7.03;;;;;;;5.10;46.45;96782.69;5030572;28;20204;-69
2021/04/09 05:05:17;;;;;;;9.97;6.13;;;;;;;5.29;45.34;96781.97;5023915;28;20843;-67
2021/04/09 05:07:43;;;;;;;13.03;6.77;;;;;;;5.32;45.30;96784.28;5028109;28;20423;-67
2021/04/09 05:10:09;;;;;;;11.87;6.30;;;;;;;5.36;45.13;96777.06;5011770;28;20216;-67
2021/04/09 05:12:35;;;;;;;8.30;6.00;;;;;;;5.47;44.50;96779.59;5021480;28;20645;-67
2021/04/09 05:15:01;;;;;;;12.50;5.63;;;;;;;5.32;44.51;96781.69;5002790;28;20433;-67
2021/04/09 05:17:26;;;;;;;9.30;6.50;;;;;;;5.49;44.84;96780.25;5013998;28;20619;-67
2021/04/09 05:19:52;;;;;;;10.63;6.90;;;;;;;5.65;43.63;96779.78;5012131;28;20234;-66
2021/04/09 05:22:18;;;;;;;14.37;6.20;;;;;;;5.78;43.40;96781.34;5018543;28;20204;-67
2021/04/09 05:24:48;;;;;;;9.40;5.50;;;;;;;5.56;43.81;96772.75;5011455;28;20423;-67
2021/04/09 05:27:14;;;;;;;8.03;5.80;;;;;;;5.85;43.57;96774.63;5012028;28;20426;-67
2021/04/09 05:29:39;;;;;;;7.10;5.90;;;;;;;5.73;43.85;96767.91;5010222;28;20463;-67
2021/04/09 05:32:08;;;;;;;12.73;6.00;;;;;;;6.37;42.71;96777.06;5012970;28;20529;-67
2021/04/09 05:34:34;;;;;;;12.20;5.77;;;;;;;6.42;42.81;96779.28;5018613;28;20199;-67
2021/04/09 05:36:59;;;;;;;13.00;5.80;;;;;;;6.24;42.17;96769.53;5020338;28;20431;-65
2021/04/09 05:39:25;;;;;;;9.10;5.60;;;;;;;6.70;42.07;96771.56;5012225;28;20219;-66
2021/04/09 05:41:51;;;;;;;9.90;5.27;;;;;;;6.57;41.60;96762.25;5011482;28;20204;-66
2021/04/09 05:44:16;;;;;;;9.97;5.60;;;;;;;6.88;41.05;96764.72;5011426;28;20184;-67
2021/04/09 05:46:42;;;;;;;10.63;5.07;;;;;;;6.94;41.15;96763.34;5026686;28;20180;-66
2021/04/09 05:49:08;;;;;;;8.23;5.20;;;;;;;7.27;40.67;96763.78;5006024;28;20216;-67
2021/04/09 05:51:35;;;;;;;9.43;5.30;;;;;;;7.45;40.39;96766.47;5019354;28;20259;-66
2021/04/09 05:54:01;;;;;;;7.43;4.90;;;;;;;7.56;39.52;96767.28;5011578;28;20204;-67
2021/04/09 05:56:26;;;;;;;13.63;5.10;;;;;;;7.62;39.74;96764.06;5011802;28;20427;-66
2021/04/09 05:58:52;;;;;;;6.40;4.27;;;;;;;7.77;39.23;96762.63;5026763;28;20868;-68
2021/04/09 06:01:17;;;;;;;7.30;5.00;;;;;;;7.87;38.84;96753.91;5010958;28;20191;-68
2021/04/09 06:03:43;;;;;;;5.10;4.20;;;;;;;8.04;38.40;96753.13;5011732;28;20208;-67
2021/04/09 06:06:09;;;;;;;15.10;5.33;;;;;;;8.22;38.09;96753.16;5028276;28;20662;-68
2021/04/09 06:08:34;;;;;;;11.80;4.97;;;;;;;8.44;37.81;96749.25;5014896;28;20251;-67
2021/04/09 06:11:00;;;;;;;8.73;4.77;;;;;;;8.54;37.09;96751.03;5015020;28;20267;-66
2021/04/09 06:13:26;;;;;;;6.13;4.43;;;;;;;8.56;37.21;96749.09;5029758;28;20192;-69
2021/04/09 06:15:51;;;;;;;6.97;4.20;;;;;;;8.91;36.76;96748.19;5014067;28;20203;-68
2021/04/09 06:18:17;;;;;;;9.57;4.40;;;;;;;9.28;36.16;96756.75;5021250;28;20263;-68
2021/04/09 06:20:42;;;;;;;6.97;4.50;;;;;;;9.70;35.01;96751.72;5015061;28;20176;-68
2021/04/09 06:23:08;;;;;;;7.47;4.10;;;;;;;9.72;34.67;96752.34;5015141;28;20217;-69
2021/04/09 06:25:34;;;;;;;7.30;4.30;;;;;;;9.61;35.05;96753.47;5015612;28;20557;-69
2021/04/09 06:27:59;;;;;;;6.37;4.40;;;;;;;9.49;34.96;96750.31;5023631;28;20313;-69
2021/04/09 06:30:25;;;;;;;6.77;4.17;;;;;;;9.56;35.32;96751.34;5015070;28;20203;-68
2021/04/09 06:32:50;;;;;;;6.40;4.03;;;;;;;9.43;35.30;96754.38;5020678;28;20200;-70
2021/04/09 06:35:16;;;;;;;9.07;4.87;;;;;;;9.66;34.85;96756.44;5029736;28;20236;-67
2021/04/09 06:37:42;;;;;;;6.83;4.17;;;;;;;9.89;34.45;96761.13;5014740;28;20267;-68
2021/04/09 06:40:10;;;;;;;6.97;4.37;;;;;;;9.83;34.18;96757.31;5014948;28;20219;-69
2021/04/09 06:42:36;;;;;;;8.13;4.83;;;;;;;10.09;34.54;96751.16;5014592;28;20204;-69
2021/04/09 06:45:06;;;;;;;7.83;4.00;;;;;;;10.18;33.97;96754.63;5014658;28;20427;-68
2021/04/09 06:47:33;;;;;;;9.60;3.77;;;;;;;10.16;34.34;96749.56;5021644;28;20868;-67
2021/04/09 06:49:59;;;;;;;6.83;4.03;;;;;;;10.08;33.32;96746.94;5018096;28;20458;-67
2021/04/09 06:52:27;;;;;;;5.60;3.40;;;;;;;10.05;34.19;96745.44;5028361;28;20451;-68
2021/04/09 06:54:54;;;;;;;6.63;4.03;;;;;;;10.46;33.91;96749.94;5011067;28;20503;-68
2021/04/09 06:57:19;;;;;;;7.17;4.13;;;;;;;10.58;32.92;96747.81;5017526;28;20426;-67
2021/04/09 06:59:46;;;;;;;6.27;4.50;;;;;;;10.49;33.29;96735.72;5027407;28;20427;-68
2021/04/09 07:02:14;;;;;;;6.23;4.10;;;;;;;10.56;33.06;96742.75;5014076;28;20196;-68
2021/04/09 07:04:41;;;;;;;6.73;4.73;;;;;;;10.64;32.67;96741.94;5013111;28;20427;-67
2021/04/09 07:07:08;;;;;;;5.60;4.40;;;;;;;10.75;32.84;96741.63;5023967;28;20441;-68
2021/04/09 07:09:34;;;;;;;10.57;4.33;;;;;;;10.83;32.61;96735.56;5024895;28;20474;-68
2021/04/09 07:12:00;;;;;;;6.47;4.63;;;;;;;10.82;32.59;96731.28;5014556;28;20416;-68
2021/04/09 07:14:54;;;;;;;8.63;4.60;;;;;;;10.83;32.20;96732.94;5021781;28;20227;-68
2021/04/09 07:17:34;;;;;;;6.57;4.50;;;;;;;10.84;32.84;96726.69;5021024;28;20665;-68
2021/04/09 07:20:24;;;;;;;8.53;4.37;;;;;;;10.69;33.00;96728.34;5015374;28;20516;-70
2021/04/09 07:22:54;;;;;;;5.13;4.00;;;;;;;11.10;32.25;96723.03;5022859;28;20555;-70
2021/04/09 07:25:24;;;;;;;10.77;4.50;;;;;;;11.00;32.15;96722.41;5010068;28;20444;-69
2021/04/09 07:28:10;;;;;;;6.17;4.43;;;;;;;11.64;31.95;96719.75;5016356;28;21266;-69
2021/04/09 07:30:36;;;;;;;8.00;4.10;;;;;;;11.72;31.06;96716.25;5008222;28;20427;-69
2021/04/09 07:33:10;;;;;;;12.40;4.70;;;;;;;11.73;30.86;96717.09;5022340;28;20549;-70
2021/04/09 07:35:45;;;;;;;8.13;4.33;;;;;;;11.57;31.44;96712.75;5012821;28;20177;-69
2021/04/09 07:38:24;;;;;;;8.40;4.23;;;;;;;11.12;31.87;96720.25;5028975;28;20422;-68
2021/04/09 07:40:53;;;;;;;5.47;4.30;;;;;;;11.23;31.59;96717.28;5014000;28;20423;-69
2021/04/09 07:43:19;;;;;;;9.10;4.43;;;;;;;11.84;31.37;96714.88;5013346;28;20447;-71
2021/04/09 07:45:44;;;;;;;7.67;4.67;;;;;;;11.79;30.78;96706.72;5012168;28;20692;-70
2021/04/09 07:48:10;;;;;;;6.17;3.87;;;;;;;11.72;30.63;96711.00;5012646;28;20268;-69
2021/04/09 07:50:40;;;;;;;6.37;4.07;;;;;;;11.89;30.39;96700.44;5010666;28;20188;-68
2021/04/09 07:53:07;;;;;;;6.13;3.83;;;;;;;11.79;30.92;96701.47;5024375;28;20204;-69
2021/04/09 07:55:33;;;;;;;7.67;4.30;;;;;;;11.52;31.04;96711.44;5028352;28;20454;-68
2021/04/09 07:58:23;;;;;;;9.00;4.77;;;;;;;12.13;30.89;96704.75;5013432;28;20439;-68
2021/04/09 08:00:51;;;;;;;9.70;5.70;;;;;;;12.34;30.59;96706.75;5012022;28;20424;-70
2021/04/09 08:03:33;;;;;;;7.53;4.37;;;;;;;12.54;30.38;96698.38;5021535;28;20473;-69
2021/04/09 08:06:10;;;;;;;5.90;4.10;;;;;;;12.57;30.09;96692.78;5020349;28;20430;-69
2021/04/09 08:08:38;;;;;;;6.33;3.87;;;;;;;12.90;29.72;96693.28;5013314;28;20467;-69
2021/04/09 08:11:29;;;;;;;5.30;4.13;;;;;;;12.54;30.64;96699.19;5013256;28;20423;-69
2021/04/09 08:14:12;;;;;;;5.50;4.47;;;;;;;12.62;30.36;96700.94;5022215;28;20435;-68
2021/04/09 08:16:38;;;;;;;5.80;4.50;;;;;;;13.26;29.49;96702.28;5028769;28;20426;-68
2021/04/09 08:19:06;;;;;;;7.73;4.83;;;;;;;13.45;29.51;96690.41;5011867;28;20416;-69
2021/04/09 08:21:34;;;;;;;5.40;4.20;;;;;;;13.54;28.62;96696.41;5015583;28;20187;-69
2021/04/09 08:24:00;;;;;;;7.30;4.40;;;;;;;13.69;28.95;96691.09;5030678;28;20553;-69
2021/04/09 08:26:27;;;;;;;5.80;4.10;;;;;;;13.39;28.62;96690.28;5018320;28;20516;-68
2021/04/09 08:28:53;;;;;;;8.47;4.10;;;;;;;13.35;28.32;96700.38;5011403;28;20196;-68
2021/04/09 08:31:19;;;;;;;10.73;4.00;;;;;;;12.58;29.17;96686.53;5011190;28;20935;-67
2021/04/09 08:33:46;;;;;;;6.70;4.63;;;;;;;13.07;28.40;96693.09;5013381;28;20328;-69
2021/04/09 08:36:11;;;;;;;6.33;4.07;;;;;;;13.16;27.85;96685.94;5010895;28;20420;-70
2021/04/09 08:38:37;;;;;;;7.17;4.60;;;;;;;13.15;27.69;96690.41;5007481;28;20482;-69
2021/04/09 08:41:03;;;;;;;5.13;3.60;;;;;;;13.13;27.87;96697.66;5007725;28;20212;-69
2021/04/09 08:43:28;;;;;;;6.00;4.17;;;;;;;12.65;28.04;96695.31;5012475;28;20291;-69
2021/04/09 08:45:54;;;;;;;4.80;3.80;;;;;;;12.83;27.69;96695.00;5009338;28;20207;-69
2021/04/09 08:48:21;;;;;;;7.07;4.60;;;;;;;12.86;27.84;96691.19;5008531;28;20271;-69
2021/04/09 08:50:46;;;;;;;10.30;4.40;;;;;;;12.64;28.35;96688.44;5006885;28;20187;-69
2021/04/09 08:53:31;;;;;;;11.37;4.23;;;;;;;12.91;28.11;96683.59;5012889;28;20546;-68
2021/04/09 08:55:56;;;;;;;5.37;3.87;;;;;;;13.16;27.86;96680.69;5018325;28;20187;-71
2021/04/09 08:58:22;;;;;;;6.43;3.80;;;;;;;12.97;27.70;96672.34;5019122;28;20432;-72
2021/04/09 09:00:49;;;;;;;9.60;4.23;;;;;;;13.31;28.10;96673.63;5013611;28;20238;-67
2021/04/09 09:03:27;;;;;;;6.40;4.10;;;;;;;13.20;27.77;96668.81;5030403;28;20574;-71
2021/04/09 09:06:04;;;;;;;7.10;3.90;;;;;;;13.26;27.68;96668.06;5032061;28;20410;-68
2021/04/09 09:09:02;;;;;;;7.90;3.70;;;;;;;13.45;27.47;96673.81;5019176;28;21055;-69
2021/04/09 09:11:52;;;;;;;14.50;4.40;;;;;;;13.43;27.11;96668.72;4973553;28;20524;-70
2021/04/09 09:14:32;;;;;;;6.47;4.23;;;;;;;13.58;26.90;96671.34;4964960;28;20934;-71
2021/04/09 09:16:58;;;;;;;9.47;4.30;;;;;;;13.35;27.06;96669.63;4947571;28;20427;-70
2021/04/09 09:19:39;;;;;;;4.97;4.00;;;;;;;13.71;26.85;96672.50;4974727;28;20807;-71
2021/04/09 09:22:15;;;;;;;8.00;4.07;;;;;;;13.35;27.17;96672.25;4966247;28;20515;-71
2021/04/09 09:25:02;;;;;;;6.13;3.97;;;;;;;13.53;27.06;96665.81;4965706;28;21017;-70
2021/04/09 09:27:48;;;;;;;7.97;3.93;;;;;;;13.80;26.74;96661.66;4980070;28;20468;-72
2021/04/09 09:30:43;;;;;;;7.00;4.97;;;;;;;14.25;26.46;96658.84;4979048;28;20995;-72
2021/04/09 09:33:25;;;;;;;5.33;3.90;;;;;;;14.50;26.21;96655.03;4943062;28;20448;-71
2021/04/09 09:35:58;;;;;;;9.83;3.70;;;;;;;13.65;26.71;96653.00;4989719;28;20907;-72
2021/04/09 09:38:54;;;;;;;6.30;3.50;;;;;;;13.30;26.42;96645.66;4983072;28;20512;-72
2021/04/09 09:41:36;;;;;;;8.13;5.63;;;;;;;13.53;26.36;96650.00;4988099;28;20432;-71
2021/04/09 09:44:03;;;;;;;7.77;4.30;;;;;;;13.30;26.49;96652.72;4956312;28;20834;-70
2021/04/09 09:46:57;;;;;;;9.47;4.23;;;;;;;13.76;25.92;96655.16;4962441;28;20426;-70
2021/04/09 09:49:24;;;;;;;7.70;3.77;;;;;;;14.33;25.51;96654.47;5013988;28;20465;-69
2021/04/09 09:51:50;;;;;;;5.80;3.80;;;;;;;13.99;25.79;96654.16;5014760;28;20973;-68
2021/04/09 09:54:26;;;;;;;5.37;3.27;;;;;;;14.24;25.80;96649.31;5017168;28;20411;-68
2021/04/09 09:56:52;;;;;;;5.60;3.30;;;;;;;13.55;26.46;96652.44;5027989;28;20299;-69
2021/04/09 09:59:21;;;;;;;6.77;3.60;;;;;;;14.18;25.82;96646.63;5018348;28;20901;-68
2021/04/09 10:01:58;;;;;;;7.37;3.20;;;;;;;14.51;25.60;96641.63;5010013;28;20216;-67
2021/04/09 10:04:25;;;;;;;7.50;3.90;;;;;;;14.76;24.42;96646.50;5014983;28;20766;-67
2021/04/09 10:06:52;;;;;;;5.90;3.53;;;;;;;14.13;25.53;96647.19;5018403;28;20419;-67
2021/04/09 10:09:29;;;;;;;6.23;3.90;;;;;;;14.34;25.54;96640.28;5027677;28;20462;-70
2021/04/09 10:11:55;;;;;;;5.30;3.40;;;;;;;13.90;25.52;96639.50;5017907;28;20430;-69
2021/04/09 10:14:21;;;;;;;3.70;3.20;;;;;;;14.03;26.08;96633.53;5015062;28;20516;-68
2021/04/09 10:16:47;;;;;;;7.73;3.00;;;;;;;14.60;25.66;96634.41;5030424;28;20431;-66
2021/04/09 10:19:13;;;;;;;4.00;2.70;;;;;;;14.47;25.52;96629.03;5011740;28;20442;-68
2021/04/09 10:21:41;;;;;;;8.10;2.93;;;;;;;14.77;25.24;96621.78;5006631;28;20216;-70
2021/04/09 10:24:09;;;;;;;11.40;3.63;;;;;;;15.19;24.79;96614.72;5005886;28;20192;-69
2021/04/09 10:26:36;;;;;;;5.70;3.30;;;;;;;15.08;25.12;96615.25;5007733;28;20443;-71
2021/04/09 10:29:02;;;;;;;9.10;3.20;;;;;;;15.06;24.94;96622.56;5012185;28;21096;-71
2021/04/09 10:31:28;;;;;;;5.80;3.23;;;;;;;15.48;25.31;96612.81;5004700;28;20866;-70
2021/04/09 10:33:56;;;;;;;8.67;4.97;;;;;;;16.03;24.48;96617.22;5005160;28;20444;-72
2021/04/09 10:36:29;;;;;;;5.37;3.27;;;;;;;15.99;24.67;96613.34;5005384;28;20184;-72
2021/04/09 10:39:01;;;;;;;4.30;3.70;;;;;;;16.32;24.01;96611.75;5006456;28;20542;-71
2021/04/09 10:41:32;;;;;;;4.73;3.20;;;;;;;15.71;24.57;96616.91;5004368;28;20426;-70
2021/04/09 10:43:59;;;;;;;6.80;3.57;;;;;;;16.17;24.31;96611.94;5009841;28;20498;-68
2021/04/09 10:46:27;;;;;;;5.33;3.17;;;;;;;16.02;24.48;96618.22;5013152;28;20426;-69
2021/04/09 10:49:19;;;;;;;5.13;3.30;;;;;;;14.87;25.67;96613.50;5007865;28;20456;-68
2021/04/09 10:51:59;;;;;;;6.07;3.43;;;;;;;15.55;24.84;96606.72;5005803;28;20438;-68
2021/04/09 10:54:29;;;;;;;3.77;2.87;;;;;;;14.71;26.39;96604.09;5014894;28;20427;-68
2021/04/09 10:57:00;;;;;;;5.73;3.70;;;;;;;14.54;26.32;96591.16;5021765;28;20477;-68
2021/04/09 10:59:35;;;;;;;6.50;3.67;;;;;;;15.50;25.24;96596.75;5020614;28;20414;-67
2021/04/09 11:02:03;;;;;;;13.63;4.23;;;;;;;15.04;25.89;96601.66;5029340;28;20422;-67
2021/04/09 11:04:30;;;;;;;9.20;3.10;;;;;;;14.68;25.92;96593.91;5022003;28;20432;-67
2021/04/09 11:06:58;;;;;;;10.23;3.83;;;;;;;15.16;25.98;96593.97;5023296;28;20430;-68
2021/04/09 11:09:44;;;;;;;5.30;3.30;;;;;;;15.35;25.66;96586.34;5014253;28;21065;-67
2021/04/09 11:12:21;;;;;;;8.03;3.50;;;;;;;15.25;25.74;96581.44;5015739;28;20513;-68
2021/04/09 11:14:51;;;;;;;7.43;4.00;;;;;;;15.61;25.23;96587.44;5034132;28;20792;-68
2021/04/09 11:17:27;;;;;;;8.90;4.20;;;;;;;16.20;24.48;96579.81;5013738;28;20469;-69
2021/04/09 11:19:56;;;;;;;4.87;3.73;;;;;;;16.12;24.34;96573.72;5017841;28;20517;-67
2021/04/09 11:22:23;;;;;;;8.73;3.63;;;;;;;16.62;24.12;96569.00;5022908;28;20466;-68
2021/04/09 11:24:56;;;;;;;8.57;3.63;;;;;;;15.81;24.62;96569.78;5024029;28;20430;-67
2021/04/09 11:27:24;;;;;;;9.10;3.07;;;;;;;14.97;25.94;96576.25;5014306;28;20423;-68
2021/04/09 11:29:50;;;;;;;11.13;3.40;;;;;;;15.65;24.81;96567.53;5012468;28;20460;-68
2021/04/09 11:32:21;;;;;;;4.90;3.47;;;;;;;16.27;24.43;96560.31;5012645;28;20444;-68
2021/04/09 11:34:49;;;;;;;8.27;3.70;;;;;;;16.04;24.26;96555.41;5015078;28;20689;-68
2021/04/09 11:37:16;;;;;;;4.37;2.80;;;;;;;15.88;24.66;96547.91;5019516;28;20465;-69
2021/04/09 11:39:51;;;;;;;5.10;3.00;;;;;;;16.72;24.11;96546.41;5024153;28;20498;-69
2021/04/09 11:42:30;;;;;;;7.10;3.43;;;;;;;16.91;23.37;96543.09;5024719;28;20430;-68
2021/04/09 11:44:56;;;;;;;6.07;3.03;;;;;;;17.04;23.11;96537.78;5014623;28;20842;-69